Terminal Aerodrome Forecast
Issued by NWS

Home | Current Version | Previous Version | Text Only | Print | Product List | Glossary On
Versions: 1 2 3 4 5 6 7 8 9 10 11 12 13 14 15
000
FTUS44 KSJT 261120
TAFSOA
TAF
KSOA 261120Z 2612/2712 VRB03KT P6SM BKN250
     FM261700 09006KT P6SM FEW050 BKN250
     FM262000 10007KT P6SM VCTS BKN060CB BKN250=

USA.gov is the U.S. government's official web portal to all federal, state and local government web resources and services.